createdAt,value
2023-02-20T00:00:36.950Z,8.30
2023-02-20T00:03:05.147Z,8.44
2023-02-20T00:05:32.882Z,8.41
2023-02-20T00:08:00.765Z,8.35
2023-02-20T00:10:28.625Z,8.45
2023-02-20T00:12:56.344Z,7.90
2023-02-20T00:15:25.618Z,8.03
2023-02-20T00:17:53.624Z,7.88
2023-02-20T00:20:23.095Z,8.21
2023-02-20T00:22:51.079Z,7.23
2023-02-20T00:25:19.876Z,7.11
2023-02-20T00:27:47.957Z,6.94
2023-02-20T00:30:17.743Z,7.25
2023-02-20T00:32:47.168Z,7.49
2023-02-20T00:35:15.680Z,7.43
2023-02-20T00:37:43.413Z,7.25
2023-02-20T00:40:11.807Z,7.24
2023-02-20T00:42:39.453Z,7.42
2023-02-20T00:45:07.797Z,7.24
2023-02-20T00:47:35.537Z,7.22
2023-02-20T00:50:05.130Z,7.22
2023-02-20T00:52:32.785Z,7.07
2023-02-20T00:55:00.450Z,7.20
2023-02-20T00:57:28.160Z,7.40
2023-02-20T00:59:55.925Z,7.39
2023-02-20T01:02:23.628Z,7.28
2023-02-20T01:04:51.358Z,7.36
2023-02-20T01:07:20.530Z,7.41
2023-02-20T01:09:48.194Z,7.22
2023-02-20T01:12:15.903Z,7.34
2023-02-20T01:14:43.664Z,7.38
2023-02-20T01:17:13.761Z,7.60
2023-02-20T01:19:42.749Z,7.42
2023-02-20T01:22:10.419Z,7.53
2023-02-20T01:24:39.468Z,7.55
2023-02-20T01:27:07.300Z,7.57
2023-02-20T01:29:34.962Z,7.59
2023-02-20T01:32:02.790Z,7.39
2023-02-20T01:34:30.839Z,7.29
2023-02-20T01:36:58.633Z,7.58
2023-02-20T01:39:28.358Z,8.13
2023-02-20T01:42:00.225Z,8.03
2023-02-20T01:44:29.811Z,7.43
2023-02-20T01:46:58.316Z,7.25
2023-02-20T01:49:34.777Z,7.21
2023-02-20T01:52:08.304Z,7.04
2023-02-20T01:54:37.692Z,6.86
2023-02-20T01:57:10.817Z,6.97
2023-02-20T01:59:40.263Z,7.03
2023-02-20T02:02:08.406Z,6.96
2023-02-20T02:04:37.822Z,7.01
2023-02-20T02:07:05.893Z,6.88
2023-02-20T02:09:39.435Z,6.96
2023-02-20T02:12:10.102Z,7.06
2023-02-20T02:14:37.742Z,7.13
2023-02-20T02:17:33.749Z,7.02
2023-02-20T02:20:31.511Z,7.26
2023-02-20T02:23:32.791Z,7.08
2023-02-20T02:26:04.685Z,7.13
2023-02-20T02:28:58.276Z,7.08
2023-02-20T02:31:51.587Z,7.01
2023-02-20T02:34:46.266Z,7.07
2023-02-20T02:37:19.143Z,6.79
2023-02-20T02:39:50.884Z,6.89
2023-02-20T02:42:22.928Z,6.95
2023-02-20T02:44:55.968Z,6.88
2023-02-20T02:47:27.160Z,6.81
2023-02-20T02:49:58.197Z,6.91
2023-02-20T02:52:46.452Z,6.91
2023-02-20T02:55:14.985Z,7.00
2023-02-20T02:57:42.665Z,6.88
2023-02-20T03:00:12.342Z,6.93
2023-02-20T03:02:47.711Z,6.92
2023-02-20T03:05:20.127Z,7.02
2023-02-20T03:07:51.929Z,7.03
2023-02-20T03:10:22.164Z,7.07
2023-02-20T03:12:51.515Z,6.95
2023-02-20T03:15:32.703Z,6.97
2023-02-20T03:18:10.773Z,7.02
2023-02-20T03:20:40.603Z,7.02
2023-02-20T03:23:10.665Z,6.94
2023-02-20T03:25:40.486Z,7.03
2023-02-20T03:28:11.195Z,6.96
2023-02-20T03:30:41.991Z,6.85
2023-02-20T03:33:30.364Z,7.15
2023-02-20T03:36:18.207Z,7.02
2023-02-20T03:39:07.319Z,6.99
2023-02-20T03:41:54.277Z,6.96
2023-02-20T03:44:23.037Z,7.10
2023-02-20T03:46:51.136Z,7.14
2023-02-20T03:49:21.390Z,7.12
2023-02-20T03:51:49.215Z,7.19
2023-02-20T03:54:19.886Z,7.21
2023-02-20T03:56:53.128Z,7.27
2023-02-20T03:59:23.337Z,7.35
2023-02-20T04:01:53.755Z,7.28
2023-02-20T04:04:24.368Z,7.34
2023-02-20T04:06:52.768Z,7.49
2023-02-20T04:09:24.570Z,7.62
2023-02-20T04:11:54.723Z,7.39
2023-02-20T04:14:24.035Z,6.97
2023-02-20T04:16:54.799Z,7.20
2023-02-20T04:19:22.594Z,7.38
2023-02-20T04:21:52.650Z,7.10
2023-02-20T04:24:27.172Z,7.40
2023-02-20T04:26:55.114Z,7.41
2023-02-20T04:29:22.911Z,7.36
2023-02-20T04:31:50.748Z,7.37
2023-02-20T04:34:18.509Z,7.48
2023-02-20T04:36:46.159Z,7.18
2023-02-20T04:39:13.841Z,7.27
2023-02-20T04:41:42.921Z,7.35
2023-02-20T04:44:28.114Z,7.48
2023-02-20T04:46:55.840Z,7.40
2023-02-20T04:49:23.600Z,7.64
2023-02-20T04:51:51.284Z,7.73
2023-02-20T04:54:19.023Z,7.44
2023-02-20T04:56:48.067Z,7.53
2023-02-20T04:59:15.886Z,7.32
2023-02-20T05:01:48.057Z,7.39
2023-02-20T05:04:16.173Z,7.62
2023-02-20T05:06:44.060Z,7.77
2023-02-20T05:09:11.986Z,7.73
2023-02-20T05:11:39.846Z,7.71
2023-02-20T05:14:08.924Z,7.75
2023-02-20T05:16:38.423Z,7.71
2023-02-20T05:19:06.497Z,7.57
2023-02-20T05:21:51.617Z,7.54
2023-02-20T05:24:20.119Z,7.55
2023-02-20T05:26:48.552Z,7.59
2023-02-20T05:29:17.658Z,7.59
2023-02-20T05:31:45.427Z,7.77
2023-02-20T05:34:13.236Z,7.74
2023-02-20T05:36:40.986Z,7.63
2023-02-20T05:39:08.714Z,7.98
2023-02-20T05:41:36.701Z,7.97
2023-02-20T05:44:04.699Z,7.82
2023-02-20T05:46:33.748Z,7.81
2023-02-20T05:49:01.392Z,7.88
2023-02-20T05:51:31.909Z,7.95
2023-02-20T05:54:00.698Z,7.77
2023-02-20T05:56:30.154Z,7.76
2023-02-20T05:58:57.844Z,7.90
2023-02-20T06:01:27.334Z,7.67
2023-02-20T06:03:56.451Z,7.98
2023-02-20T06:06:24.855Z,8.01
2023-02-20T06:08:52.544Z,8.15
2023-02-20T06:11:20.185Z,8.10
2023-02-20T06:13:47.856Z,8.07
2023-02-20T06:16:23.809Z,8.24
2023-02-20T06:18:51.848Z,8.08
2023-02-20T06:21:23.137Z,8.10
2023-02-20T06:23:51.864Z,8.21
2023-02-20T06:26:19.995Z,8.26
2023-02-20T06:28:50.109Z,8.27
2023-02-20T06:31:22.958Z,8.11
2023-02-20T06:33:50.654Z,8.07
2023-02-20T06:36:25.069Z,8.34
2023-02-20T06:38:54.773Z,8.20
2023-02-20T06:41:23.868Z,8.40
2023-02-20T06:43:51.624Z,8.35
2023-02-20T06:54:40.315Z,9.09
2023-02-20T06:59:55.585Z,9.20
2023-02-20T07:02:23.306Z,9.28
2023-02-20T07:04:51.392Z,9.30
2023-02-20T07:07:20.662Z,9.37
2023-02-20T07:09:48.390Z,9.64
2023-02-20T07:12:16.055Z,9.48
2023-02-20T07:14:43.720Z,8.62
2023-02-20T07:17:11.339Z,8.60
2023-02-20T07:19:39.213Z,8.62
2023-02-20T07:22:06.980Z,8.60
2023-02-20T07:24:36.831Z,8.59
2023-02-20T07:29:32.642Z,8.87
2023-02-20T07:32:00.431Z,8.62
2023-02-20T07:34:28.169Z,8.70
2023-02-20T07:36:55.841Z,8.68
2023-02-20T07:39:23.513Z,8.70
2023-02-20T07:41:53.360Z,8.59
2023-02-20T07:44:21.229Z,8.87
2023-02-20T07:46:49.105Z,8.87
2023-02-20T07:49:16.780Z,8.68
2023-02-20T07:51:44.455Z,8.77
2023-02-20T07:54:12.242Z,9.02
2023-02-20T07:56:41.592Z,9.15
2023-02-20T07:59:11.061Z,9.23
2023-02-20T08:01:38.848Z,9.18
2023-02-20T08:04:06.544Z,9.34
2023-02-20T08:06:34.282Z,8.99
2023-02-20T08:09:01.966Z,9.28
2023-02-20T08:11:29.778Z,9.24
2023-02-20T08:13:57.456Z,9.32
2023-02-20T08:16:27.034Z,9.31
2023-02-20T08:18:54.880Z,9.26
2023-02-20T08:21:22.646Z,9.30
2023-02-20T08:23:50.467Z,9.35
2023-02-20T08:26:18.220Z,9.39
2023-02-20T08:28:47.595Z,9.28
2023-02-20T08:31:30.927Z,9.42
2023-02-20T08:34:01.149Z,9.57
2023-02-20T08:36:28.972Z,9.51
2023-02-20T08:38:57.377Z,9.39
2023-02-20T08:41:25.115Z,9.45
2023-02-20T08:43:52.936Z,9.46
2023-02-20T08:46:20.673Z,9.49
2023-02-20T08:48:48.375Z,9.46
2023-02-20T08:51:19.846Z,9.52
2023-02-20T08:53:47.536Z,9.61
2023-02-20T08:56:19.488Z,9.50
2023-02-20T08:58:47.167Z,9.48
2023-02-20T09:01:14.878Z,9.67
2023-02-20T09:03:43.834Z,9.90
2023-02-20T09:06:12.011Z,9.49
2023-02-20T09:08:41.145Z,9.58
2023-02-20T09:11:10.193Z,9.51
2023-02-20T09:13:43.283Z,9.76
2023-02-20T09:16:11.301Z,9.49
2023-02-20T09:18:39.277Z,9.68
2023-02-20T09:21:10.435Z,9.27
2023-02-20T09:23:38.242Z,9.43
2023-02-20T09:26:07.933Z,9.63
2023-02-20T09:28:35.594Z,9.69
2023-02-20T09:31:03.444Z,9.60
2023-02-20T09:33:31.284Z,9.73
2023-02-20T09:35:58.964Z,9.66
2023-02-20T09:38:28.486Z,9.77
2023-02-20T09:40:59.657Z,9.85
2023-02-20T09:43:39.693Z,9.74
2023-02-20T09:46:11.529Z,10.00
2023-02-20T09:48:47.788Z,9.76
2023-02-20T09:51:17.104Z,9.87
2023-02-20T09:53:52.474Z,9.91
2023-02-20T09:56:22.019Z,9.83
2023-02-20T09:58:56.906Z,10.13
2023-02-20T10:01:24.882Z,9.93
2023-02-20T10:03:57.648Z,9.82
2023-02-20T10:06:27.700Z,9.71
2023-02-20T10:08:56.058Z,9.53
2023-02-20T10:11:38.557Z,9.80
2023-02-20T10:14:18.198Z,10.18
2023-02-20T10:16:50.514Z,10.20
2023-02-20T10:19:24.658Z,10.27
2023-02-20T10:21:58.619Z,10.22
2023-02-20T10:24:44.522Z,10.11
2023-02-20T10:27:20.618Z,10.04
2023-02-20T10:29:49.652Z,10.00
2023-02-20T10:32:22.310Z,9.80
2023-02-20T10:34:55.235Z,9.99
2023-02-20T10:37:29.596Z,10.04
2023-02-20T10:40:07.955Z,10.05
2023-02-20T10:42:39.132Z,10.03
2023-02-20T10:45:11.019Z,10.21
2023-02-20T10:47:44.140Z,10.29
2023-02-20T10:50:16.485Z,10.32
2023-02-20T10:52:48.578Z,10.52
2023-02-20T10:55:19.352Z,10.59
2023-02-20T10:57:50.220Z,10.39
2023-02-20T11:00:22.623Z,10.58
2023-02-20T11:02:57.738Z,10.12
2023-02-20T11:05:26.737Z,10.40
2023-02-20T11:07:54.584Z,10.15
2023-02-20T11:10:22.311Z,10.23
2023-02-20T11:12:52.153Z,10.11
2023-02-20T11:15:23.684Z,10.06
2023-02-20T11:17:53.515Z,10.10
2023-02-20T11:20:56.504Z,10.09
2023-02-20T11:23:41.279Z,10.19
2023-02-20T11:26:27.408Z,9.99
2023-02-20T11:28:59.853Z,10.05
2023-02-20T11:31:29.787Z,9.94
2023-02-20T11:33:58.267Z,10.07
2023-02-20T11:36:27.039Z,9.97
2023-02-20T11:38:59.569Z,10.31
2023-02-20T11:41:30.842Z,10.37
2023-02-20T11:44:29.892Z,10.50
2023-02-20T11:47:18.397Z,10.32
2023-02-20T11:49:46.168Z,10.41
2023-02-20T11:52:18.032Z,10.29
2023-02-20T11:54:47.117Z,10.30
2023-02-20T11:57:25.483Z,10.53
2023-02-20T11:59:53.850Z,10.52
2023-02-20T12:02:28.794Z,10.23
2023-02-20T12:05:09.971Z,10.73
2023-02-20T12:07:40.021Z,10.29
2023-02-20T12:10:17.536Z,10.63
2023-02-20T12:12:45.247Z,10.53
2023-02-20T12:15:14.900Z,10.77
2023-02-20T12:17:52.996Z,10.52
2023-02-20T12:20:22.311Z,10.62
2023-02-20T12:22:54.058Z,10.34
2023-02-20T12:25:26.168Z,10.60
2023-02-20T12:28:03.860Z,10.68
2023-02-20T12:30:42.318Z,10.62
2023-02-20T12:33:34.289Z,10.63
2023-02-20T12:36:09.648Z,10.52
2023-02-20T12:38:42.931Z,10.56
2023-02-20T12:41:22.256Z,10.90
2023-02-20T12:44:11.370Z,10.79
2023-02-20T12:46:45.219Z,10.90
2023-02-20T12:49:27.275Z,10.98
2023-02-20T12:51:57.833Z,10.69
2023-02-20T12:54:35.589Z,10.98
2023-02-20T12:57:13.429Z,11.09
2023-02-20T12:59:46.205Z,10.68
2023-02-20T13:02:25.326Z,10.90
2023-02-20T13:05:01.398Z,11.04
2023-02-20T13:07:32.747Z,11.32
2023-02-20T13:10:05.275Z,11.03
2023-02-20T13:12:32.952Z,10.66
2023-02-20T13:15:09.100Z,10.54
2023-02-20T13:17:42.006Z,10.70
2023-02-20T13:20:18.475Z,10.38
2023-02-20T13:22:59.488Z,10.47
2023-02-20T13:25:48.031Z,10.53
2023-02-20T13:28:28.985Z,10.38
2023-02-20T13:31:14.145Z,10.69
2023-02-20T13:33:43.039Z,10.63
2023-02-20T13:36:32.887Z,10.34
2023-02-20T13:39:39.594Z,10.53
2023-02-20T13:42:33.869Z,10.58
2023-02-20T13:45:02.250Z,10.63
2023-02-20T13:47:39.605Z,10.70
2023-02-20T13:50:34.071Z,10.65
2023-02-20T13:53:06.105Z,10.78
2023-02-20T13:55:34.481Z,10.54
2023-02-20T13:58:13.823Z,10.44
2023-02-20T14:00:52.491Z,10.64
2023-02-20T14:03:23.753Z,10.83
2023-02-20T14:06:07.292Z,10.78
2023-02-20T14:08:36.892Z,10.70
2023-02-20T14:11:09.096Z,10.50
2023-02-20T14:13:41.243Z,10.65
2023-02-20T14:16:27.785Z,10.78
2023-02-20T14:18:58.865Z,10.77
2023-02-20T14:21:26.787Z,10.68
2023-02-20T14:23:55.785Z,10.37
2023-02-20T14:26:25.138Z,10.47
2023-02-20T14:28:54.530Z,10.60
2023-02-20T14:31:24.849Z,10.82
2023-02-20T14:33:54.057Z,10.97
2023-02-20T14:36:34.594Z,10.69
2023-02-20T14:39:14.439Z,10.82
2023-02-20T14:41:52.604Z,10.84
2023-02-20T14:44:20.372Z,11.71
2023-02-20T14:46:48.631Z,11.57
2023-02-20T14:49:25.564Z,11.81
2023-02-20T14:51:53.527Z,11.55
2023-02-20T14:54:25.123Z,11.29
2023-02-20T14:56:54.281Z,11.42
2023-02-20T14:59:27.040Z,11.48
2023-02-20T15:01:56.794Z,11.00
2023-02-20T15:04:26.193Z,11.17
2023-02-20T15:06:55.588Z,11.40
2023-02-20T15:09:24.624Z,11.52
2023-02-20T15:11:55.786Z,11.30
2023-02-20T15:14:26.240Z,11.56
2023-02-20T15:17:16.028Z,11.58
2023-02-20T15:19:43.930Z,11.57
2023-02-20T15:22:24.568Z,11.56
2023-02-20T15:24:54.338Z,11.56
2023-02-20T15:27:24.635Z,11.56
2023-02-20T15:30:12.825Z,11.64
2023-02-20T15:32:42.180Z,11.62
2023-02-20T15:35:18.411Z,11.42
2023-02-20T15:37:50.231Z,11.49
2023-02-20T15:40:23.507Z,11.46
2023-02-20T15:42:56.882Z,11.59
2023-02-20T15:45:25.562Z,11.67
2023-02-20T15:47:53.295Z,11.70
2023-02-20T15:50:21.295Z,11.76
2023-02-20T15:52:49.632Z,11.80
2023-02-20T15:55:18.808Z,11.56
2023-02-20T15:57:49.009Z,11.75
2023-02-20T16:00:22.011Z,11.54
2023-02-20T16:02:49.856Z,11.78
2023-02-20T16:05:17.712Z,11.86
2023-02-20T16:07:45.615Z,11.71
2023-02-20T16:10:16.247Z,11.36
2023-02-20T16:12:44.312Z,11.59
2023-02-20T16:15:17.189Z,11.65
2023-02-20T16:17:45.486Z,11.88
2023-02-20T16:20:17.508Z,11.61
2023-02-20T16:22:45.744Z,11.68
2023-02-20T16:25:16.340Z,11.53
2023-02-20T16:27:44.699Z,10.65
2023-02-20T16:30:30.869Z,11.49
2023-02-20T16:33:00.273Z,11.58
2023-02-20T16:35:28.013Z,11.82
2023-02-20T16:37:55.697Z,11.55
2023-02-20T16:40:23.400Z,11.69
2023-02-20T16:42:51.083Z,11.79
2023-02-20T16:45:21.110Z,11.58
2023-02-20T16:47:50.495Z,11.69
2023-02-20T16:50:20.558Z,11.60
2023-02-20T16:52:50.610Z,11.59
2023-02-20T16:55:21.239Z,11.85
2023-02-20T16:57:49.418Z,11.79
2023-02-20T17:00:19.009Z,11.62
2023-02-20T17:02:48.159Z,11.64
2023-02-20T17:05:17.094Z,11.51
2023-02-20T17:07:44.795Z,11.48
2023-02-20T17:10:12.553Z,11.30
2023-02-20T17:12:40.219Z,11.35
2023-02-20T17:15:09.349Z,11.61
2023-02-20T17:17:37.077Z,11.41
2023-02-20T17:20:06.818Z,11.39
2023-02-20T17:22:34.526Z,11.42
2023-02-20T17:25:02.231Z,11.16
2023-02-20T17:27:29.923Z,11.46
2023-02-20T17:29:58.092Z,10.50
2023-02-20T17:32:25.870Z,10.41
2023-02-20T17:34:53.568Z,10.37
2023-02-20T17:37:23.334Z,10.59
2023-02-20T17:39:51.007Z,11.12
2023-02-20T17:42:18.747Z,11.32
2023-02-20T17:44:46.416Z,11.28
2023-02-20T17:47:14.195Z,11.48
2023-02-20T17:49:41.965Z,11.16
2023-02-20T17:52:10.630Z,11.30
2023-02-20T17:54:41.263Z,10.69
2023-02-20T17:57:08.998Z,10.46
2023-02-20T17:59:38.953Z,10.40
2023-02-20T18:02:07.839Z,10.38
2023-02-20T18:04:35.895Z,10.41
2023-02-20T18:07:06.802Z,10.64
2023-02-20T18:09:34.674Z,10.57
2023-02-20T18:12:04.586Z,10.40
2023-02-20T18:14:32.532Z,10.13
2023-02-20T18:17:00.323Z,10.18
2023-02-20T18:19:28.143Z,10.25
2023-02-20T18:21:55.894Z,10.40
2023-02-20T18:24:25.616Z,10.43
2023-02-20T18:26:54.284Z,10.41
2023-02-20T18:29:25.151Z,10.12
2023-02-20T18:31:53.403Z,10.43
2023-02-20T18:34:22.955Z,10.18
2023-02-20T18:36:51.056Z,10.34
2023-02-20T18:39:18.842Z,10.21
2023-02-20T18:41:50.004Z,10.28
2023-02-20T18:44:17.937Z,10.33
2023-02-20T18:46:47.307Z,10.18
2023-02-20T18:49:15.059Z,10.23
2023-02-20T18:51:44.362Z,10.36
2023-02-20T18:54:18.033Z,10.36
2023-02-20T18:56:47.441Z,10.18
2023-02-20T18:59:15.397Z,10.44
2023-02-20T19:01:43.714Z,10.32
2023-02-20T19:04:14.635Z,10.21
2023-02-20T19:06:44.520Z,10.33
2023-02-20T19:09:14.501Z,10.31
2023-02-20T19:11:42.464Z,10.51
2023-02-20T19:14:10.419Z,10.35
2023-02-20T19:16:38.137Z,10.34
2023-02-20T19:19:07.746Z,11.10
2023-02-20T19:21:36.840Z,11.24
2023-02-20T19:24:05.120Z,11.25
2023-02-20T19:26:32.783Z,11.26
2023-02-20T19:31:33.102Z,11.01
2023-02-20T19:34:01.102Z,11.31
2023-02-20T19:36:28.784Z,10.93
2023-02-20T19:38:58.043Z,11.26
2023-02-20T19:41:26.812Z,11.42
2023-02-20T19:43:55.905Z,10.92
2023-02-20T19:46:25.087Z,10.31
2023-02-20T19:48:52.903Z,10.13
2023-02-20T19:51:21.714Z,10.12
2023-02-20T19:53:50.243Z,10.10
2023-02-20T19:56:19.433Z,10.12
2023-02-20T19:58:47.197Z,10.33
2023-02-20T20:01:16.907Z,10.24
2023-02-20T20:03:45.446Z,9.98
2023-02-20T20:06:14.310Z,10.06
2023-02-20T20:09:01.793Z,10.09
2023-02-20T20:11:31.171Z,10.28
2023-02-20T20:13:58.844Z,10.16
2023-02-20T20:16:26.579Z,10.16
2023-02-20T20:18:54.536Z,10.05
2023-02-20T20:21:22.631Z,10.11
2023-02-20T20:23:50.342Z,10.14
2023-02-20T20:26:18.074Z,10.14
2023-02-20T20:28:47.156Z,10.11
2023-02-20T20:31:15.216Z,10.02
2023-02-20T20:33:43.133Z,10.10
2023-02-20T20:36:11.197Z,10.24
2023-02-20T20:38:38.881Z,10.29
2023-02-20T20:41:06.633Z,10.09
2023-02-20T20:43:34.996Z,10.02
2023-02-20T20:46:04.278Z,10.17
2023-02-20T20:48:31.982Z,10.14
2023-02-20T20:50:59.642Z,10.03
2023-02-20T20:53:27.480Z,10.05
2023-02-20T20:55:55.145Z,10.14
2023-02-20T20:58:22.888Z,10.17
2023-02-20T21:00:50.624Z,10.30
2023-02-20T21:03:19.708Z,10.59
2023-02-20T21:05:47.422Z,10.83
2023-02-20T21:08:15.115Z,10.92
2023-02-20T21:10:42.845Z,11.06
2023-02-20T21:13:10.522Z,11.03
2023-02-20T21:15:38.471Z,11.18
2023-02-20T21:18:06.691Z,11.20
2023-02-20T21:20:36.193Z,11.16
2023-02-20T21:23:04.830Z,11.27
2023-02-20T21:25:32.563Z,11.32
2023-02-20T21:28:00.223Z,11.09
2023-02-20T21:30:28.162Z,11.10
2023-02-20T21:32:56.113Z,11.40
2023-02-20T21:35:26.102Z,11.52
2023-02-20T21:37:55.537Z,11.51
2023-02-20T21:40:23.250Z,11.59
2023-02-20T21:43:08.617Z,11.52
2023-02-20T21:45:37.176Z,11.52
2023-02-20T21:48:05.642Z,11.20
2023-02-20T21:50:33.366Z,11.23
2023-02-20T21:53:02.561Z,11.25
2023-02-20T21:55:30.622Z,11.17
2023-02-20T21:58:03.247Z,11.21
2023-02-20T22:00:29.782Z,10.98
2023-02-20T22:02:56.362Z,11.09
2023-02-20T22:05:22.954Z,10.90
2023-02-20T22:08:08.362Z,10.95
2023-02-20T22:10:55.149Z,10.88
2023-02-20T22:13:40.213Z,10.90
2023-02-20T22:16:25.705Z,10.90
2023-02-20T22:19:10.855Z,10.58
2023-02-20T22:21:56.272Z,10.49
2023-02-20T22:24:41.605Z,10.51
2023-02-20T22:27:28.645Z,10.42
2023-02-20T22:30:14.067Z,10.45
2023-02-20T22:32:59.223Z,10.63
2023-02-20T22:35:44.427Z,10.34
2023-02-20T22:38:29.820Z,10.63
2023-02-20T22:41:15.440Z,10.44
2023-02-20T22:44:02.319Z,10.56
2023-02-20T22:46:47.648Z,10.56
2023-02-20T22:49:33.027Z,10.56
2023-02-20T22:52:18.530Z,10.61
2023-02-20T22:55:05.807Z,10.44
2023-02-20T22:57:51.619Z,10.57
2023-02-20T23:00:38.824Z,10.61
2023-02-20T23:03:24.513Z,10.53
2023-02-20T23:06:19.078Z,10.47
2023-02-20T23:09:05.788Z,10.64
2023-02-20T23:11:52.753Z,10.64
2023-02-20T23:14:37.946Z,10.72
2023-02-20T23:17:34.851Z,10.76
2023-02-20T23:20:21.825Z,10.64
2023-02-20T23:23:07.082Z,10.55
2023-02-20T23:25:52.487Z,10.56
2023-02-20T23:28:37.905Z,10.79
2023-02-20T23:31:23.460Z,10.53
2023-02-20T23:34:09.769Z,10.84
2023-02-20T23:36:55.108Z,10.78
2023-02-20T23:39:40.533Z,10.65
2023-02-20T23:42:25.893Z,10.61
2023-02-20T23:45:11.437Z,10.72
2023-02-20T23:47:58.806Z,10.76
2023-02-20T23:50:45.515Z,10.79
2023-02-20T23:53:30.926Z,10.62
2023-02-20T23:56:16.229Z,10.51
2023-02-20T23:59:01.692Z,10.63
